sensor_id;sensor_type;location;lat;lon;timestamp;temperature;humidity
18932;DHT22;9598;50.954;3.112;2023-10-09T00:05:21;17.80;99.90
18932;DHT22;9598;50.954;3.112;2023-10-09T00:10:38;17.80;99.90
18932;DHT22;9598;50.954;3.112;2023-10-09T00:15:49;17.90;99.90
18932;DHT22;9598;50.954;3.112;2023-10-09T00:20:55;17.80;99.90
18932;DHT22;9598;50.954;3.112;2023-10-09T00:26:01;17.80;99.90
18932;DHT22;9598;50.954;3.112;2023-10-09T00:31:23;17.80;99.90
18932;DHT22;9598;50.954;3.112;2023-10-09T00:36:32;17.70;99.90
18932;DHT22;9598;50.954;3.112;2023-10-09T00:41:50;17.70;99.90
18932;DHT22;9598;50.954;3.112;2023-10-09T00:46:54;17.70;99.90
18932;DHT22;9598;50.954;3.112;2023-10-09T00:52:10;17.70;99.90
18932;DHT22;9598;50.954;3.112;2023-10-09T00:57:22;17.70;99.90
18932;DHT22;9598;50.954;3.112;2023-10-09T01:02:27;17.70;99.90
18932;DHT22;9598;50.954;3.112;2023-10-09T01:07:39;17.60;99.90
18932;DHT22;9598;50.954;3.112;2023-10-09T01:12:42;17.60;99.90
18932;DHT22;9598;50.954;3.112;2023-10-09T01:17:45;17.60;99.90
18932;DHT22;9598;50.954;3.112;2023-10-09T01:22:50;17.60;99.90
18932;DHT22;9598;50.954;3.112;2023-10-09T01:27:53;17.50;99.90
18932;DHT22;9598;50.954;3.112;2023-10-09T01:32:58;17.50;99.90
18932;DHT22;9598;50.954;3.112;2023-10-09T01:38:12;17.50;99.90
18932;DHT22;9598;50.954;3.112;2023-10-09T01:43:17;17.50;99.90
18932;DHT22;9598;50.954;3.112;2023-10-09T01:48:22;17.50;99.90
18932;DHT22;9598;50.954;3.112;2023-10-09T01:53:25;17.50;99.90
18932;DHT22;9598;50.954;3.112;2023-10-09T01:58:32;17.50;99.90
18932;DHT22;9598;50.954;3.112;2023-10-09T02:03:35;17.50;99.90
18932;DHT22;9598;50.954;3.112;2023-10-09T02:08:39;17.50;99.90
18932;DHT22;9598;50.954;3.112;2023-10-09T02:13:51;17.50;99.90
18932;DHT22;9598;50.954;3.112;2023-10-09T02:19:01;17.40;99.90
18932;DHT22;9598;50.954;3.112;2023-10-09T02:24:08;17.50;99.90
18932;DHT22;9598;50.954;3.112;2023-10-09T02:29:28;17.50;99.90
18932;DHT22;9598;50.954;3.112;2023-10-09T02:34:35;17.40;99.90
18932;DHT22;9598;50.954;3.112;2023-10-09T02:39:39;17.40;99.90
18932;DHT22;9598;50.954;3.112;2023-10-09T02:44:49;17.40;99.90
18932;DHT22;9598;50.954;3.112;2023-10-09T02:49:52;17.30;99.90
18932;DHT22;9598;50.954;3.112;2023-10-09T02:55:01;17.30;99.90
18932;DHT22;9598;50.954;3.112;2023-10-09T03:00:16;17.30;99.90
18932;DHT22;9598;50.954;3.112;2023-10-09T03:05:20;17.20;99.90
18932;DHT22;9598;50.954;3.112;2023-10-09T03:10:23;17.20;99.90
18932;DHT22;9598;50.954;3.112;2023-10-09T03:15:27;17.30;99.90
18932;DHT22;9598;50.954;3.112;2023-10-09T03:20:32;17.30;99.90
18932;DHT22;9598;50.954;3.112;2023-10-09T03:25:35;17.30;99.90
18932;DHT22;9598;50.954;3.112;2023-10-09T03:30:39;17.30;99.90
18932;DHT22;9598;50.954;3.112;2023-10-09T03:35:44;17.20;99.90
18932;DHT22;9598;50.954;3.112;2023-10-09T03:40:47;17.20;99.90
18932;DHT22;9598;50.954;3.112;2023-10-09T03:45:51;17.20;99.90
18932;DHT22;9598;50.954;3.112;2023-10-09T03:50:54;17.20;99.90
18932;DHT22;9598;50.954;3.112;2023-10-09T03:56:09;17.20;99.90
18932;DHT22;9598;50.954;3.112;2023-10-09T04:01:16;17.20;99.90
18932;DHT22;9598;50.954;3.112;2023-10-09T04:06:23;17.10;99.90
18932;DHT22;9598;50.954;3.112;2023-10-09T04:11:29;17.10;99.90
18932;DHT22;9598;50.954;3.112;2023-10-09T04:16:35;17.10;99.90
18932;DHT22;9598;50.954;3.112;2023-10-09T04:21:51;17.10;99.90
18932;DHT22;9598;50.954;3.112;2023-10-09T04:26:56;17.10;99.90
18932;DHT22;9598;50.954;3.112;2023-10-09T04:31:59;17.20;99.90
18932;DHT22;9598;50.954;3.112;2023-10-09T04:37:02;17.10;99.90
18932;DHT22;9598;50.954;3.112;2023-10-09T04:42:20;17.10;99.90
18932;DHT22;9598;50.954;3.112;2023-10-09T04:47:38;17.10;99.90
18932;DHT22;9598;50.954;3.112;2023-10-09T04:52:50;17.10;99.90
18932;DHT22;9598;50.954;3.112;2023-10-09T04:57:54;17.00;99.90
18932;DHT22;9598;50.954;3.112;2023-10-09T05:03:10;17.00;99.90
18932;DHT22;9598;50.954;3.112;2023-10-09T05:08:14;17.00;99.90
18932;DHT22;9598;50.954;3.112;2023-10-09T05:13:20;17.00;99.90
18932;DHT22;9598;50.954;3.112;2023-10-09T05:18:44;17.00;99.90
18932;DHT22;9598;50.954;3.112;2023-10-09T05:23:56;17.00;99.90
18932;DHT22;9598;50.954;3.112;2023-10-09T05:29:18;16.90;99.90
18932;DHT22;9598;50.954;3.112;2023-10-09T05:34:36;17.00;99.90
18932;DHT22;9598;50.954;3.112;2023-10-09T05:39:59;16.90;99.90
18932;DHT22;9598;50.954;3.112;2023-10-09T05:45:23;16.90;99.90
18932;DHT22;9598;50.954;3.112;2023-10-09T05:50:44;16.80;99.90
18932;DHT22;9598;50.954;3.112;2023-10-09T05:56:11;16.80;99.90
18932;DHT22;9598;50.954;3.112;2023-10-09T06:01:30;16.80;99.90
18932;DHT22;9598;50.954;3.112;2023-10-09T06:06:51;16.70;99.90
18932;DHT22;9598;50.954;3.112;2023-10-09T06:11:57;16.70;99.90
18932;DHT22;9598;50.954;3.112;2023-10-09T06:17:13;16.70;99.90
18932;DHT22;9598;50.954;3.112;2023-10-09T06:22:25;16.60;99.90
18932;DHT22;9598;50.954;3.112;2023-10-09T06:27:45;16.60;99.90
18932;DHT22;9598;50.954;3.112;2023-10-09T06:32:59;16.60;99.90
18932;DHT22;9598;50.954;3.112;2023-10-09T06:38:22;16.70;99.90
18932;DHT22;9598;50.954;3.112;2023-10-09T06:43:24;16.60;99.90
18932;DHT22;9598;50.954;3.112;2023-10-09T06:48:29;16.60;99.90
18932;DHT22;9598;50.954;3.112;2023-10-09T06:53:46;16.60;99.90
18932;DHT22;9598;50.954;3.112;2023-10-09T06:59:08;16.60;99.90
18932;DHT22;9598;50.954;3.112;2023-10-09T07:04:22;16.60;99.90
18932;DHT22;9598;50.954;3.112;2023-10-09T07:09:48;16.70;99.90
18932;DHT22;9598;50.954;3.112;2023-10-09T07:15:04;16.70;99.90
18932;DHT22;9598;50.954;3.112;2023-10-09T07:20:21;16.70;99.90
18932;DHT22;9598;50.954;3.112;2023-10-09T07:25:47;16.70;99.90
18932;DHT22;9598;50.954;3.112;2023-10-09T07:31:00;16.80;99.90
18932;DHT22;9598;50.954;3.112;2023-10-09T07:36:03;16.90;99.90
18932;DHT22;9598;50.954;3.112;2023-10-09T07:41:10;17.00;99.90
18932;DHT22;9598;50.954;3.112;2023-10-09T07:46:29;17.10;99.90
18932;DHT22;9598;50.954;3.112;2023-10-09T07:51:35;17.10;99.90
18932;DHT22;9598;50.954;3.112;2023-10-09T07:56:40;17.20;99.90
18932;DHT22;9598;50.954;3.112;2023-10-09T08:01:47;17.30;99.90
18932;DHT22;9598;50.954;3.112;2023-10-09T08:06:54;17.40;99.90
18932;DHT22;9598;50.954;3.112;2023-10-09T08:12:01;17.50;99.90
18932;DHT22;9598;50.954;3.112;2023-10-09T08:17:21;17.60;99.90
18932;DHT22;9598;50.954;3.112;2023-10-09T08:22:24;17.70;99.90
18932;DHT22;9598;50.954;3.112;2023-10-09T08:27:53;17.70;99.90
18932;DHT22;9598;50.954;3.112;2023-10-09T08:32:58;17.70;99.90
18932;DHT22;9598;50.954;3.112;2023-10-09T08:38:04;17.80;99.90
18932;DHT22;9598;50.954;3.112;2023-10-09T08:43:14;17.90;99.90
18932;DHT22;9598;50.954;3.112;2023-10-09T08:48:17;18.00;99.90
18932;DHT22;9598;50.954;3.112;2023-10-09T08:53:21;18.00;99.90
18932;DHT22;9598;50.954;3.112;2023-10-09T08:58:26;18.10;99.90
18932;DHT22;9598;50.954;3.112;2023-10-09T09:03:38;18.10;99.90
18932;DHT22;9598;50.954;3.112;2023-10-09T09:08:42;18.20;99.90
18932;DHT22;9598;50.954;3.112;2023-10-09T09:13:48;18.40;99.90
18932;DHT22;9598;50.954;3.112;2023-10-09T09:19:06;18.50;99.90
18932;DHT22;9598;50.954;3.112;2023-10-09T09:24:18;18.70;99.90
18932;DHT22;9598;50.954;3.112;2023-10-09T09:29:40;18.80;99.90
18932;DHT22;9598;50.954;3.112;2023-10-09T09:34:44;18.90;99.90
18932;DHT22;9598;50.954;3.112;2023-10-09T09:39:47;19.00;99.90
18932;DHT22;9598;50.954;3.112;2023-10-09T09:44:53;19.20;99.90
18932;DHT22;9598;50.954;3.112;2023-10-09T09:49:58;19.30;99.90
18932;DHT22;9598;50.954;3.112;2023-10-09T09:55:12;19.50;99.90
18932;DHT22;9598;50.954;3.112;2023-10-09T10:00:22;19.60;99.90
18932;DHT22;9598;50.954;3.112;2023-10-09T10:05:33;19.80;99.90
18932;DHT22;9598;50.954;3.112;2023-10-09T10:10:37;20.00;99.90
18932;DHT22;9598;50.954;3.112;2023-10-09T10:16:00;20.20;99.90
18932;DHT22;9598;50.954;3.112;2023-10-09T10:21:14;20.40;99.90
18932;DHT22;9598;50.954;3.112;2023-10-09T10:26:19;20.40;99.90
18932;DHT22;9598;50.954;3.112;2023-10-09T10:31:53;20.50;99.90
18932;DHT22;9598;50.954;3.112;2023-10-09T10:36:56;20.60;99.90
18932;DHT22;9598;50.954;3.112;2023-10-09T10:42:01;20.70;99.90
18932;DHT22;9598;50.954;3.112;2023-10-09T10:47:08;20.80;99.90
18932;DHT22;9598;50.954;3.112;2023-10-09T10:52:23;20.80;99.90
18932;DHT22;9598;50.954;3.112;2023-10-09T10:57:36;20.90;99.90
18932;DHT22;9598;50.954;3.112;2023-10-09T11:03:03;20.90;99.90
18932;DHT22;9598;50.954;3.112;2023-10-09T11:08:18;21.00;99.90
18932;DHT22;9598;50.954;3.112;2023-10-09T11:13:26;21.00;99.90
18932;DHT22;9598;50.954;3.112;2023-10-09T11:18:43;21.10;99.90
18932;DHT22;9598;50.954;3.112;2023-10-09T11:23:46;21.20;99.90
18932;DHT22;9598;50.954;3.112;2023-10-09T11:29:08;21.20;99.90
18932;DHT22;9598;50.954;3.112;2023-10-09T11:34:21;21.30;99.90
18932;DHT22;9598;50.954;3.112;2023-10-09T11:39:32;21.30;99.90
18932;DHT22;9598;50.954;3.112;2023-10-09T11:44:39;21.40;99.90
18932;DHT22;9598;50.954;3.112;2023-10-09T11:49:49;21.50;99.90
18932;DHT22;9598;50.954;3.112;2023-10-09T11:54:58;21.70;99.90
18932;DHT22;9598;50.954;3.112;2023-10-09T12:00:01;21.80;99.90
18932;DHT22;9598;50.954;3.112;2023-10-09T12:05:12;21.80;99.90
18932;DHT22;9598;50.954;3.112;2023-10-09T12:10:17;21.90;99.90
18932;DHT22;9598;50.954;3.112;2023-10-09T12:15:25;22.00;99.90
18932;DHT22;9598;50.954;3.112;2023-10-09T12:20:38;22.00;99.90
18932;DHT22;9598;50.954;3.112;2023-10-09T12:25:41;22.10;99.90
18932;DHT22;9598;50.954;3.112;2023-10-09T12:30:45;22.10;99.90
18932;DHT22;9598;50.954;3.112;2023-10-09T12:35:52;22.10;99.90
18932;DHT22;9598;50.954;3.112;2023-10-09T12:41:03;22.10;99.90
18932;DHT22;9598;50.954;3.112;2023-10-09T12:46:08;22.20;99.90
18932;DHT22;9598;50.954;3.112;2023-10-09T12:51:12;22.20;99.90
18932;DHT22;9598;50.954;3.112;2023-10-09T12:56:17;22.30;99.90
18932;DHT22;9598;50.954;3.112;2023-10-09T13:01:19;22.30;99.90
18932;DHT22;9598;50.954;3.112;2023-10-09T13:06:23;22.30;99.90
18932;DHT22;9598;50.954;3.112;2023-10-09T13:11:25;22.30;99.90
18932;DHT22;9598;50.954;3.112;2023-10-09T13:16:27;22.40;99.90
18932;DHT22;9598;50.954;3.112;2023-10-09T13:21:31;22.50;99.90
18932;DHT22;9598;50.954;3.112;2023-10-09T13:26:34;22.60;99.90
18932;DHT22;9598;50.954;3.112;2023-10-09T13:31:36;22.70;99.90
18932;DHT22;9598;50.954;3.112;2023-10-09T13:36:48;22.60;99.90
18932;DHT22;9598;50.954;3.112;2023-10-09T13:41:54;22.60;99.90
18932;DHT22;9598;50.954;3.112;2023-10-09T13:47:00;22.60;99.90
18932;DHT22;9598;50.954;3.112;2023-10-09T13:52:07;22.70;99.90
18932;DHT22;9598;50.954;3.112;2023-10-09T13:57:09;22.70;99.90
18932;DHT22;9598;50.954;3.112;2023-10-09T14:02:11;22.80;99.90
18932;DHT22;9598;50.954;3.112;2023-10-09T14:07:19;22.70;99.90
18932;DHT22;9598;50.954;3.112;2023-10-09T14:12:22;22.80;99.90
18932;DHT22;9598;50.954;3.112;2023-10-09T14:17:25;22.90;99.90
18932;DHT22;9598;50.954;3.112;2023-10-09T14:22:30;22.90;99.90
18932;DHT22;9598;50.954;3.112;2023-10-09T14:27:32;22.90;99.90
18932;DHT22;9598;50.954;3.112;2023-10-09T14:32:35;22.90;99.90
18932;DHT22;9598;50.954;3.112;2023-10-09T14:37:46;22.90;99.90
18932;DHT22;9598;50.954;3.112;2023-10-09T14:42:48;22.90;99.90
18932;DHT22;9598;50.954;3.112;2023-10-09T14:47:53;22.90;99.90
18932;DHT22;9598;50.954;3.112;2023-10-09T14:52:56;22.90;99.90
18932;DHT22;9598;50.954;3.112;2023-10-09T14:58:02;22.90;99.90
18932;DHT22;9598;50.954;3.112;2023-10-09T15:03:04;22.80;99.90
18932;DHT22;9598;50.954;3.112;2023-10-09T15:08:10;22.80;99.90
18932;DHT22;9598;50.954;3.112;2023-10-09T15:13:12;22.70;99.90
18932;DHT22;9598;50.954;3.112;2023-10-09T15:18:14;22.70;99.90
18932;DHT22;9598;50.954;3.112;2023-10-09T15:23:22;22.60;99.90
18932;DHT22;9598;50.954;3.112;2023-10-09T15:28:24;22.50;99.90
18932;DHT22;9598;50.954;3.112;2023-10-09T15:33:30;22.50;99.90
18932;DHT22;9598;50.954;3.112;2023-10-09T15:38:34;22.40;99.90
18932;DHT22;9598;50.954;3.112;2023-10-09T15:43:37;22.40;99.90
18932;DHT22;9598;50.954;3.112;2023-10-09T15:48:41;22.40;99.90
18932;DHT22;9598;50.954;3.112;2023-10-09T15:53:45;22.40;99.90
18932;DHT22;9598;50.954;3.112;2023-10-09T15:58:47;22.30;99.90
18932;DHT22;9598;50.954;3.112;2023-10-09T16:03:49;22.30;99.90
18932;DHT22;9598;50.954;3.112;2023-10-09T16:08:53;22.30;99.90
18932;DHT22;9598;50.954;3.112;2023-10-09T16:13:55;22.30;99.90
18932;DHT22;9598;50.954;3.112;2023-10-09T16:18:57;22.20;99.90
18932;DHT22;9598;50.954;3.112;2023-10-09T16:24:01;22.10;99.90
18932;DHT22;9598;50.954;3.112;2023-10-09T16:29:06;22.10;99.90
18932;DHT22;9598;50.954;3.112;2023-10-09T16:34:09;22.10;99.90
18932;DHT22;9598;50.954;3.112;2023-10-09T16:39:15;22.00;99.90
18932;DHT22;9598;50.954;3.112;2023-10-09T16:44:23;22.00;99.90
18932;DHT22;9598;50.954;3.112;2023-10-09T16:49:25;21.90;99.90
18932;DHT22;9598;50.954;3.112;2023-10-09T16:54:28;21.70;99.90
18932;DHT22;9598;50.954;3.112;2023-10-09T16:59:31;21.70;99.90
18932;DHT22;9598;50.954;3.112;2023-10-09T17:04:34;21.60;99.90
18932;DHT22;9598;50.954;3.112;2023-10-09T17:09:38;21.60;99.90
18932;DHT22;9598;50.954;3.112;2023-10-09T17:14:42;21.50;99.90
18932;DHT22;9598;50.954;3.112;2023-10-09T17:19:44;21.40;99.90
18932;DHT22;9598;50.954;3.112;2023-10-09T17:24:50;21.30;99.90
18932;DHT22;9598;50.954;3.112;2023-10-09T17:29:54;21.20;99.90
18932;DHT22;9598;50.954;3.112;2023-10-09T17:34:59;21.10;99.90
18932;DHT22;9598;50.954;3.112;2023-10-09T17:40:05;20.90;99.90
18932;DHT22;9598;50.954;3.112;2023-10-09T17:45:09;20.90;99.90
18932;DHT22;9598;50.954;3.112;2023-10-09T17:50:11;20.70;99.90
18932;DHT22;9598;50.954;3.112;2023-10-09T17:55:15;20.60;99.90
18932;DHT22;9598;50.954;3.112;2023-10-09T18:00:18;20.50;99.90
18932;DHT22;9598;50.954;3.112;2023-10-09T18:05:25;20.40;99.90
18932;DHT22;9598;50.954;3.112;2023-10-09T18:10:34;20.30;99.90
18932;DHT22;9598;50.954;3.112;2023-10-09T18:15:41;20.20;99.90
18932;DHT22;9598;50.954;3.112;2023-10-09T18:20:44;20.10;99.90
18932;DHT22;9598;50.954;3.112;2023-10-09T18:25:48;20.00;99.90
18932;DHT22;9598;50.954;3.112;2023-10-09T18:30:51;19.80;99.90
18932;DHT22;9598;50.954;3.112;2023-10-09T18:35:53;19.80;99.90
18932;DHT22;9598;50.954;3.112;2023-10-09T18:40:57;19.70;99.90
18932;DHT22;9598;50.954;3.112;2023-10-09T18:46:03;19.60;99.90
18932;DHT22;9598;50.954;3.112;2023-10-09T18:51:05;19.60;99.90
18932;DHT22;9598;50.954;3.112;2023-10-09T18:56:13;19.50;99.90
18932;DHT22;9598;50.954;3.112;2023-10-09T19:01:15;19.40;99.90
18932;DHT22;9598;50.954;3.112;2023-10-09T19:06:17;19.30;99.90
18932;DHT22;9598;50.954;3.112;2023-10-09T19:11:24;19.20;99.90
18932;DHT22;9598;50.954;3.112;2023-10-09T19:16:27;19.20;99.90
18932;DHT22;9598;50.954;3.112;2023-10-09T19:21:30;19.10;99.90
18932;DHT22;9598;50.954;3.112;2023-10-09T19:26:34;19.00;99.90
18932;DHT22;9598;50.954;3.112;2023-10-09T19:31:37;19.00;99.90
18932;DHT22;9598;50.954;3.112;2023-10-09T19:36:40;18.90;99.90
18932;DHT22;9598;50.954;3.112;2023-10-09T19:41:48;18.80;99.90
18932;DHT22;9598;50.954;3.112;2023-10-09T19:46:51;18.80;99.90
18932;DHT22;9598;50.954;3.112;2023-10-09T19:51:54;18.60;99.90
18932;DHT22;9598;50.954;3.112;2023-10-09T19:56:58;18.60;99.90
18932;DHT22;9598;50.954;3.112;2023-10-09T20:02:00;18.50;99.90
18932;DHT22;9598;50.954;3.112;2023-10-09T20:07:04;18.50;99.90
18932;DHT22;9598;50.954;3.112;2023-10-09T20:12:08;18.40;99.90
18932;DHT22;9598;50.954;3.112;2023-10-09T20:17:10;18.30;99.90
18932;DHT22;9598;50.954;3.112;2023-10-09T20:22:13;18.30;99.90
18932;DHT22;9598;50.954;3.112;2023-10-09T20:27:16;18.20;99.90
18932;DHT22;9598;50.954;3.112;2023-10-09T20:32:18;18.20;99.90
18932;DHT22;9598;50.954;3.112;2023-10-09T20:37:21;18.10;99.90
18932;DHT22;9598;50.954;3.112;2023-10-09T20:42:24;18.00;99.90
18932;DHT22;9598;50.954;3.112;2023-10-09T20:47:28;17.90;99.90
18932;DHT22;9598;50.954;3.112;2023-10-09T20:52:32;17.70;99.90
18932;DHT22;9598;50.954;3.112;2023-10-09T20:57:36;17.70;99.90
18932;DHT22;9598;50.954;3.112;2023-10-09T21:02:41;17.70;99.90
18932;DHT22;9598;50.954;3.112;2023-10-09T21:07:46;17.70;99.90
18932;DHT22;9598;50.954;3.112;2023-10-09T21:12:53;17.60;99.90
18932;DHT22;9598;50.954;3.112;2023-10-09T21:17:56;17.60;99.90
18932;DHT22;9598;50.954;3.112;2023-10-09T21:22:59;17.60;99.90
18932;DHT22;9598;50.954;3.112;2023-10-09T21:28:05;17.50;99.90
18932;DHT22;9598;50.954;3.112;2023-10-09T21:33:07;17.40;99.90
18932;DHT22;9598;50.954;3.112;2023-10-09T21:38:09;17.40;99.90
18932;DHT22;9598;50.954;3.112;2023-10-09T21:43:13;17.30;99.90
18932;DHT22;9598;50.954;3.112;2023-10-09T21:48:16;17.30;99.90
18932;DHT22;9598;50.954;3.112;2023-10-09T21:53:18;17.20;99.90
18932;DHT22;9598;50.954;3.112;2023-10-09T21:58:22;17.20;99.90
18932;DHT22;9598;50.954;3.112;2023-10-09T22:03:24;17.20;99.90
18932;DHT22;9598;50.954;3.112;2023-10-09T22:08:27;17.10;99.90
18932;DHT22;9598;50.954;3.112;2023-10-09T22:13:31;17.10;99.90
18932;DHT22;9598;50.954;3.112;2023-10-09T22:18:33;17.10;99.90
18932;DHT22;9598;50.954;3.112;2023-10-09T22:23:40;17.00;99.90
18932;DHT22;9598;50.954;3.112;2023-10-09T22:28:51;17.00;99.90
18932;DHT22;9598;50.954;3.112;2023-10-09T22:33:53;16.90;99.90
18932;DHT22;9598;50.954;3.112;2023-10-09T22:38:56;16.90;99.90
18932;DHT22;9598;50.954;3.112;2023-10-09T22:44:01;16.90;99.90
18932;DHT22;9598;50.954;3.112;2023-10-09T22:49:10;16.80;99.90
18932;DHT22;9598;50.954;3.112;2023-10-09T22:54:14;16.70;99.90
18932;DHT22;9598;50.954;3.112;2023-10-09T22:59:25;16.70;99.90
18932;DHT22;9598;50.954;3.112;2023-10-09T23:04:28;16.70;99.90
18932;DHT22;9598;50.954;3.112;2023-10-09T23:09:38;16.70;99.90
18932;DHT22;9598;50.954;3.112;2023-10-09T23:14:52;16.60;99.90
18932;DHT22;9598;50.954;3.112;2023-10-09T23:19:55;16.60;99.90
18932;DHT22;9598;50.954;3.112;2023-10-09T23:24:59;16.60;99.90
18932;DHT22;9598;50.954;3.112;2023-10-09T23:30:12;16.50;99.90
18932;DHT22;9598;50.954;3.112;2023-10-09T23:35:19;16.40;99.90
18932;DHT22;9598;50.954;3.112;2023-10-09T23:40:22;16.40;99.90
18932;DHT22;9598;50.954;3.112;2023-10-09T23:45:40;16.30;99.90
18932;DHT22;9598;50.954;3.112;2023-10-09T23:50:43;16.30;99.90
18932;DHT22;9598;50.954;3.112;2023-10-09T23:55:48;16.30;99.90
